Strona główna
METAR-TAF:

METAR-TAF

Lotnisko :

Tweed New Haven Regional Airport

New Haven, Connecticut, Stany Zjednoczone

Szerokość geograficzna: 41-15-50N, Długość geograficzna: 072-53-14W, wysokość: 4 m

Aktualna obserwacja pogody

Raport powstał 56 minut temu, godzina 02:53 UTC
Wiatr 12 kt od północno-północny wschód, zmienny między północ i północny wschód
Temperatura 10°C
Wilgotność 76%
Ciśnienie 1011 hPa
Widzialność: 16.1 km
Zachmurzenie całkowite na wysokości 2400 ft

METAR: KHVN 040253Z AUTO 03012KT 350V050 10SM OVC024 10/06 A2984 RMK AO2 SLP103 T01000056 51020

czas: 23:49 (03:49 UTC)


TAF: brakujący

Obserwacja i prognoza pogody dla ponad 4000 lotnisk (raport METAR i TAF).

Dostępne stacje oznaczono żółtymi i czerwonymi punktami na mapie.

Najedź kursorem aby zobaczyć nazwę stacji.

Kliknij aby zobaczyć obserwacje i prognozy pogody.

Aby zmienić mapę: kliknij na zielony przycisk z czarnym krzyżykiem, aby powiększyć; na zielony przycisk z myślnikiem, aby pomniejszyć; na zielone strzałki, aby przejść do map sąsiednich.


METAR-TAF: